Terminal Aerodrome Forecast
Issued by NWS Twin Cities, MN

Home | Current Version | Previous Version | Text Only | Print | Product List | Glossary Off
Versions: 1 2 3 4 5 6 7 8 9 10 11 12 13 14 15 16 17 18 19 20 21

118
FTUS43 KMPX 230520
TAFMSP
TAF
KMSP 230520Z 2306/2412 25004KT P6SM SCT250
     FM231100 30005KT P6SM BKN250
     FM231500 03006KT P6SM SCT250
     FM231800 09006KT P6SM SCT250
     FM232000 15008KT P6SM SCT150 BKN200
     FM240100 11009KT P6SM SCT150 BKN200
     FM240600 14009KT P6SM SCT250=

USA.gov is the U.S. government's official web portal to all federal, state and local government web resources and services.